Terminal Aerodrome Forecast
Issued by NWS

Home | Current Version | Previous Version | Text Only | Print | Product List | Glossary On
Versions: 1 2 3 4 5 6 7 8 9 10 11 12 13 14 15 16 17 18 19 20 21 22 23
000
FTUS45 KFGZ 051143
TAFPRC
TAF
KPRC 051143Z 0512/0612 VRB05KT P6SM -SHRA FEW040 BKN080
     FM051800 24010KT P6SM -SHRA BKN025 BKN030
      TEMPO 0519/0523 4SM -TSRA OVC015CB
     FM060300 VRB04KT P6SM SCT030 BKN060=

USA.gov is the U.S. government's official web portal to all federal, state and local government web resources and services.